createdAt,value
2023-03-08T00:01:10.948Z,24.50
2023-03-08T00:03:39.217Z,37.77
2023-03-08T00:06:08.422Z,49.13
2023-03-08T00:08:36.691Z,74.70
2023-03-08T00:11:06.833Z,23.67
2023-03-08T00:13:35.262Z,26.23
2023-03-08T00:16:06.570Z,43.33
2023-03-08T00:18:37.745Z,40.70
2023-03-08T00:21:08.338Z,24.87
2023-03-08T00:23:41.777Z,26.17
2023-03-08T00:26:12.501Z,32.20
2023-03-08T00:28:49.641Z,30.03
2023-03-08T00:31:19.383Z,53.20
2023-03-08T00:33:49.171Z,27.83
2023-03-08T00:36:20.968Z,177.63
2023-03-08T00:39:01.023Z,60.00
2023-03-08T00:41:33.275Z,51.83
2023-03-08T00:44:10.382Z,29.73
2023-03-08T00:46:44.292Z,31.70
2023-03-08T00:49:25.385Z,29.43
2023-03-08T00:51:57.754Z,98.67
2023-03-08T00:54:32.154Z,67.70
2023-03-08T00:57:02.941Z,52.77
2023-03-08T00:59:32.249Z,44.90
2023-03-08T01:02:10.065Z,24.10
2023-03-08T01:04:40.929Z,27.90
2023-03-08T01:07:12.594Z,25.27
2023-03-08T01:09:42.840Z,31.53
2023-03-08T01:12:12.262Z,27.63
2023-03-08T01:14:44.173Z,23.20
2023-03-08T01:17:15.191Z,23.90
2023-03-08T01:19:44.874Z,32.23
2023-03-08T01:22:13.032Z,28.37
2023-03-08T01:24:46.412Z,26.23
2023-03-08T01:27:17.672Z,27.47
2023-03-08T01:29:48.330Z,35.97
2023-03-08T01:32:31.741Z,26.27
2023-03-08T01:35:06.977Z,27.60
2023-03-08T01:37:38.277Z,28.93
2023-03-08T01:40:10.722Z,26.03
2023-03-08T01:42:41.867Z,25.07
2023-03-08T01:45:45.298Z,25.53
2023-03-08T01:48:35.573Z,26.70
2023-03-08T01:51:07.525Z,30.77
2023-03-08T01:53:41.020Z,24.60
2023-03-08T01:56:12.604Z,27.20
2023-03-08T01:58:47.502Z,38.53
2023-03-08T02:01:18.490Z,25.67
2023-03-08T02:03:53.659Z,24.90
2023-03-08T02:06:25.260Z,27.30
2023-03-08T02:08:55.887Z,23.37
2023-03-08T02:11:29.260Z,28.50
2023-03-08T02:13:58.952Z,25.13
2023-03-08T02:16:29.466Z,28.57
2023-03-08T02:19:05.960Z,23.17
2023-03-08T02:21:45.192Z,24.10
2023-03-08T02:24:29.375Z,24.40
2023-03-08T02:27:07.578Z,26.53
2023-03-08T02:29:39.393Z,27.50
2023-03-08T02:32:08.388Z,25.27
2023-03-08T02:34:38.264Z,28.27
2023-03-08T02:37:10.712Z,26.57
2023-03-08T02:39:42.720Z,26.37
2023-03-08T02:42:17.229Z,27.90
2023-03-08T02:44:48.480Z,27.07
2023-03-08T02:47:18.905Z,26.43
2023-03-08T02:49:50.162Z,24.77
2023-03-08T02:52:26.080Z,25.37
2023-03-08T02:55:00.749Z,24.93
2023-03-08T02:57:34.965Z,23.67
2023-03-08T03:00:04.656Z,31.30
2023-03-08T03:02:45.090Z,25.97
2023-03-08T03:05:14.778Z,28.33
2023-03-08T03:07:44.828Z,25.73
2023-03-08T03:10:16.264Z,25.17
2023-03-08T03:12:44.964Z,24.57
2023-03-08T03:15:13.633Z,27.67
2023-03-08T03:17:43.229Z,30.73
2023-03-08T03:20:13.132Z,24.13
2023-03-08T03:22:42.342Z,24.90
2023-03-08T03:25:14.561Z,27.87
2023-03-08T03:27:59.412Z,25.00
2023-03-08T03:30:27.649Z,33.13
2023-03-08T03:32:55.820Z,25.77
2023-03-08T03:35:26.398Z,27.33
2023-03-08T03:37:56.064Z,25.30
2023-03-08T03:40:27.035Z,24.70
2023-03-08T03:42:59.197Z,24.00
2023-03-08T03:45:28.882Z,28.60
2023-03-08T03:47:59.450Z,25.13
2023-03-08T03:50:28.787Z,26.83
2023-03-08T03:53:00.942Z,23.10
2023-03-08T03:55:29.331Z,29.50
2023-03-08T03:57:59.035Z,24.37
2023-03-08T04:00:30.636Z,23.47
2023-03-08T04:02:59.807Z,24.63
2023-03-08T04:05:34.646Z,24.60
2023-03-08T04:08:06.151Z,25.70
2023-03-08T04:10:34.897Z,27.10
2023-03-08T04:13:09.410Z,25.40
2023-03-08T04:15:40.943Z,27.77
2023-03-08T04:18:10.392Z,27.00
2023-03-08T04:20:38.558Z,25.70
2023-03-08T04:23:09.342Z,25.77
2023-03-08T04:25:37.810Z,23.27
2023-03-08T04:28:23.370Z,21.63
2023-03-08T04:30:53.629Z,26.30
2023-03-08T04:33:23.400Z,24.10
2023-03-08T04:35:53.487Z,27.90
2023-03-08T04:38:21.659Z,24.00
2023-03-08T04:41:08.113Z,24.30
2023-03-08T04:43:40.842Z,23.70
2023-03-08T04:46:10.445Z,26.23
2023-03-08T04:48:40.513Z,22.23
2023-03-08T04:51:10.622Z,23.13
2023-03-08T04:53:41.422Z,28.87
2023-03-08T04:56:13.429Z,22.43
2023-03-08T04:58:43.753Z,22.93
2023-03-08T05:01:19.360Z,25.67
2023-03-08T05:03:53.607Z,28.73
2023-03-08T05:06:23.324Z,22.20
2023-03-08T05:08:57.737Z,26.67
2023-03-08T05:11:28.316Z,30.87
2023-03-08T05:14:00.310Z,26.93
2023-03-08T05:16:29.024Z,22.50
2023-03-08T05:19:00.835Z,23.83
2023-03-08T05:21:29.074Z,23.10
2023-03-08T05:24:00.409Z,24.40
2023-03-08T05:26:29.245Z,29.80
2023-03-08T05:29:02.281Z,24.80
2023-03-08T05:31:30.512Z,26.90
2023-03-08T05:34:01.012Z,22.97
2023-03-08T05:36:31.626Z,24.57
2023-03-08T05:39:01.257Z,24.20
2023-03-08T05:41:30.666Z,30.27
2023-03-08T05:44:04.228Z,27.57
2023-03-08T05:46:34.905Z,23.70
2023-03-08T05:49:04.828Z,26.60
2023-03-08T05:51:35.812Z,37.53
2023-03-08T05:54:05.539Z,25.27
2023-03-08T05:56:33.752Z,23.50
2023-03-08T05:59:08.034Z,23.07
2023-03-08T06:01:38.680Z,31.53
2023-03-08T06:04:07.095Z,27.50
2023-03-08T06:09:20.078Z,21.30
2023-03-08T06:11:53.128Z,24.83
2023-03-08T06:14:32.335Z,25.23
2023-03-08T06:17:02.341Z,27.70
2023-03-08T06:19:41.686Z,27.37
2023-03-08T06:22:25.815Z,25.27
2023-03-08T06:25:10.739Z,56.57
2023-03-08T06:27:43.114Z,85.03
2023-03-08T06:30:16.040Z,30.23
2023-03-08T06:32:47.120Z,25.50
2023-03-08T06:35:27.584Z,23.70
2023-03-08T06:37:58.653Z,22.40
2023-03-08T06:40:29.474Z,26.77
2023-03-08T06:42:59.368Z,23.70
2023-03-08T06:45:29.523Z,26.23
2023-03-08T06:48:00.292Z,28.67
2023-03-08T06:50:33.211Z,27.33
2023-03-08T06:53:10.194Z,28.83
2023-03-08T06:55:41.854Z,24.83
2023-03-08T06:58:10.380Z,25.27
2023-03-08T07:00:40.254Z,26.03
2023-03-08T07:03:08.550Z,24.90
2023-03-08T07:05:36.919Z,24.43
2023-03-08T07:08:05.345Z,25.47
2023-03-08T07:10:33.723Z,25.83
2023-03-08T07:13:01.909Z,31.50
2023-03-08T07:15:30.218Z,24.30
2023-03-08T07:18:00.300Z,26.70
2023-03-08T07:20:29.354Z,21.57
2023-03-08T07:22:57.537Z,22.10
2023-03-08T07:25:25.987Z,27.33
2023-03-08T07:27:54.138Z,29.73
2023-03-08T07:30:22.562Z,28.07
2023-03-08T07:32:50.838Z,23.70
2023-03-08T07:35:20.813Z,22.63
2023-03-08T07:37:49.455Z,22.40
2023-03-08T07:40:19.044Z,35.53
2023-03-08T07:42:47.512Z,41.63
2023-03-08T07:45:16.223Z,16.60
2023-03-08T07:47:44.396Z,19.83
2023-03-08T07:50:13.337Z,14.37
2023-03-08T07:52:42.875Z,12.50
2023-03-08T07:55:12.066Z,13.53
2023-03-08T07:57:40.622Z,12.17
2023-03-08T08:00:10.748Z,10.77
2023-03-08T08:02:39.180Z,14.13
2023-03-08T08:05:07.895Z,11.70
2023-03-08T08:07:36.038Z,16.53
2023-03-08T08:10:06.498Z,11.80
2023-03-08T08:12:35.459Z,11.30
2023-03-08T08:15:03.640Z,7.80
2023-03-08T08:17:31.767Z,9.43
2023-03-08T08:20:00.640Z,28.63
2023-03-08T08:22:28.885Z,9.03
2023-03-08T08:24:56.990Z,12.13
2023-03-08T08:27:26.609Z,11.90
2023-03-08T08:29:54.746Z,7.50
2023-03-08T08:32:23.035Z,8.47
2023-03-08T08:34:51.273Z,9.10
2023-03-08T08:37:19.483Z,7.33
2023-03-08T08:39:47.670Z,10.97
2023-03-08T08:42:15.913Z,8.40
2023-03-08T08:44:45.491Z,8.20
2023-03-08T08:47:13.634Z,7.00
2023-03-08T08:49:41.807Z,6.57
2023-03-08T08:52:09.999Z,7.00
2023-03-08T08:54:39.997Z,7.77
2023-03-08T08:57:08.420Z,6.80
2023-03-08T08:59:36.606Z,5.93
2023-03-08T09:02:06.399Z,6.90
2023-03-08T09:04:34.736Z,6.00
2023-03-08T09:07:03.115Z,6.67
2023-03-08T09:09:31.326Z,8.47
2023-03-08T09:11:59.502Z,6.20
2023-03-08T09:14:27.806Z,6.50
2023-03-08T09:16:56.096Z,5.93
2023-03-08T09:19:25.662Z,5.90
2023-03-08T09:21:53.882Z,7.10
2023-03-08T09:24:22.081Z,5.70
2023-03-08T09:26:50.324Z,6.87
2023-03-08T09:29:18.504Z,5.90
2023-03-08T09:31:46.733Z,5.77
2023-03-08T09:34:15.651Z,6.10
2023-03-08T09:36:45.606Z,14.70
2023-03-08T09:39:14.740Z,12.40
2023-03-08T09:41:52.265Z,5.90
2023-03-08T09:44:45.368Z,5.90
2023-03-08T09:47:24.386Z,6.43
2023-03-08T09:49:55.539Z,6.40
2023-03-08T09:52:31.921Z,6.43
2023-03-08T09:55:02.006Z,6.57
2023-03-08T09:57:36.466Z,7.10
2023-03-08T10:00:11.838Z,5.80
2023-03-08T10:02:48.758Z,8.40
2023-03-08T10:05:24.632Z,9.33
2023-03-08T10:08:02.278Z,13.30
2023-03-08T10:10:40.135Z,5.90
2023-03-08T10:13:30.008Z,5.70
2023-03-08T10:16:06.285Z,5.70
2023-03-08T10:18:40.522Z,5.70
2023-03-08T10:21:12.895Z,8.33
2023-03-08T10:23:42.596Z,6.00
2023-03-08T10:26:13.274Z,7.10
2023-03-08T10:28:41.886Z,7.57
2023-03-08T10:31:33.667Z,6.50
2023-03-08T10:34:08.283Z,7.63
2023-03-08T10:36:36.434Z,7.00
2023-03-08T10:39:11.296Z,9.17
2023-03-08T10:41:43.779Z,6.60
2023-03-08T10:44:16.094Z,8.80
2023-03-08T10:46:50.183Z,6.20
2023-03-08T10:49:20.318Z,8.27
2023-03-08T10:51:56.502Z,6.47
2023-03-08T10:54:26.735Z,6.80
2023-03-08T10:56:59.104Z,10.87
2023-03-08T10:59:32.659Z,6.23
2023-03-08T11:02:03.188Z,13.20
2023-03-08T11:04:32.335Z,7.40
2023-03-08T11:07:10.559Z,8.23
2023-03-08T11:09:40.264Z,9.73
2023-03-08T11:12:24.398Z,8.30
2023-03-08T11:14:53.298Z,9.13
2023-03-08T11:17:28.562Z,9.30
2023-03-08T11:20:10.618Z,7.83
2023-03-08T11:22:51.338Z,17.97
2023-03-08T11:25:33.652Z,7.93
2023-03-08T11:28:25.723Z,7.50
2023-03-08T11:31:04.576Z,7.87
2023-03-08T11:33:46.813Z,7.50
2023-03-08T11:36:22.268Z,10.83
2023-03-08T11:38:58.186Z,6.90
2023-03-08T11:41:34.661Z,8.20
2023-03-08T11:44:16.382Z,9.33
2023-03-08T11:46:56.138Z,10.03
2023-03-08T11:49:50.933Z,7.80
2023-03-08T11:52:29.937Z,11.10
2023-03-08T11:55:11.514Z,10.43
2023-03-08T11:57:49.842Z,9.00
2023-03-08T12:00:23.761Z,7.60
2023-03-08T12:02:52.759Z,9.43
2023-03-08T12:05:28.163Z,6.80
2023-03-08T12:08:00.816Z,8.27
2023-03-08T12:10:32.244Z,8.77
2023-03-08T12:13:07.673Z,8.30
2023-03-08T12:15:40.605Z,13.43
2023-03-08T12:18:17.411Z,8.00
2023-03-08T12:20:46.426Z,7.20
2023-03-08T12:23:25.978Z,8.30
2023-03-08T12:26:00.121Z,13.90
2023-03-08T12:28:35.902Z,7.93
2023-03-08T12:31:27.531Z,6.97
2023-03-08T12:33:58.058Z,6.90
2023-03-08T12:36:38.749Z,7.13
2023-03-08T12:39:09.251Z,19.70
2023-03-08T12:41:37.655Z,8.30
2023-03-08T12:44:23.490Z,6.30
2023-03-08T12:47:02.848Z,6.80
2023-03-08T12:49:35.617Z,18.60
2023-03-08T12:52:07.311Z,7.43
2023-03-08T12:54:37.124Z,9.27
2023-03-08T12:57:17.278Z,11.10
2023-03-08T12:59:47.418Z,11.57
2023-03-08T13:02:30.745Z,8.37
2023-03-08T13:05:21.191Z,10.80
2023-03-08T13:08:03.404Z,9.50
2023-03-08T13:10:35.588Z,10.67
2023-03-08T13:13:37.521Z,15.80
2023-03-08T13:16:21.388Z,12.50
2023-03-08T13:18:54.659Z,14.50
2023-03-08T13:21:34.519Z,10.47
2023-03-08T13:24:10.559Z,14.70
2023-03-08T13:27:02.869Z,8.17
2023-03-08T13:29:33.071Z,8.77
2023-03-08T13:32:12.661Z,7.00
2023-03-08T13:34:41.821Z,10.90
2023-03-08T13:37:22.085Z,13.17
2023-03-08T13:39:54.248Z,9.27
2023-03-08T13:42:25.793Z,7.60
2023-03-08T13:44:54.292Z,10.97
2023-03-08T13:47:26.727Z,7.63
2023-03-08T13:49:56.651Z,27.33
2023-03-08T13:52:30.040Z,7.53
2023-03-08T13:55:00.770Z,13.00
2023-03-08T13:57:31.051Z,11.80
2023-03-08T14:00:01.740Z,11.20
2023-03-08T14:02:32.742Z,6.00
2023-03-08T14:05:01.063Z,8.53
2023-03-08T14:07:32.033Z,27.10
2023-03-08T14:10:00.345Z,17.90
2023-03-08T14:12:31.001Z,6.47
2023-03-08T14:15:02.305Z,7.30
2023-03-08T14:17:35.956Z,12.03
2023-03-08T14:20:16.649Z,6.70
2023-03-08T14:22:48.472Z,7.50
2023-03-08T14:25:28.059Z,6.30
2023-03-08T14:27:56.799Z,11.63
2023-03-08T14:30:26.771Z,10.40
2023-03-08T14:33:08.183Z,7.07
2023-03-08T14:35:39.001Z,7.60
2023-03-08T14:38:15.082Z,7.10
2023-03-08T14:40:49.538Z,12.93
2023-03-08T14:43:20.487Z,14.97
2023-03-08T14:45:55.189Z,9.37
2023-03-08T14:48:26.696Z,11.43
2023-03-08T14:50:57.835Z,8.43
2023-03-08T14:53:30.351Z,22.07
2023-03-08T14:55:59.274Z,7.63
2023-03-08T14:58:30.698Z,9.40
2023-03-08T15:01:02.071Z,13.43
2023-03-08T15:03:33.002Z,7.30
2023-03-08T15:06:08.709Z,7.57
2023-03-08T15:08:37.063Z,7.50
2023-03-08T15:11:05.325Z,22.60
2023-03-08T15:13:33.427Z,7.93
2023-03-08T15:16:01.581Z,9.00
2023-03-08T15:18:31.184Z,7.93
2023-03-08T15:20:59.356Z,5.87
2023-03-08T15:23:30.604Z,6.03
2023-03-08T15:26:00.221Z,6.10
2023-03-08T15:28:28.700Z,6.63
2023-03-08T15:30:56.829Z,6.87
2023-03-08T15:33:25.487Z,7.47
2023-03-08T15:35:55.184Z,8.33
2023-03-08T15:38:24.833Z,7.07
2023-03-08T15:40:53.034Z,9.53
2023-03-08T15:43:21.127Z,8.90
2023-03-08T15:45:49.256Z,7.00
2023-03-08T15:48:19.880Z,8.47
2023-03-08T15:50:48.099Z,8.53
2023-03-08T15:53:29.571Z,6.67
2023-03-08T15:56:01.284Z,11.80
2023-03-08T15:58:29.461Z,7.10
2023-03-08T16:00:57.633Z,13.50
2023-03-08T16:03:30.868Z,10.20
2023-03-08T16:05:59.822Z,10.37
2023-03-08T16:08:29.762Z,10.27
2023-03-08T16:11:03.738Z,28.67
2023-03-08T16:13:32.024Z,12.50
2023-03-08T16:16:00.630Z,6.63
2023-03-08T16:18:29.909Z,6.90
2023-03-08T16:20:58.896Z,13.67
2023-03-08T16:23:27.433Z,13.60
2023-03-08T16:26:14.835Z,14.53
2023-03-08T16:28:44.747Z,12.00
2023-03-08T16:31:13.362Z,9.30
2023-03-08T16:33:41.999Z,10.50
2023-03-08T16:36:10.408Z,17.93
2023-03-08T16:38:38.561Z,8.87
2023-03-08T16:41:15.659Z,7.00
2023-03-08T16:43:48.547Z,7.30
2023-03-08T16:46:18.333Z,6.67
2023-03-08T16:48:49.367Z,8.03
2023-03-08T16:51:20.405Z,8.80
2023-03-08T16:53:49.215Z,10.50
2023-03-08T16:56:22.821Z,7.30
2023-03-08T16:58:51.079Z,8.03
2023-03-08T17:01:20.944Z,10.73
2023-03-08T17:03:49.474Z,16.60
2023-03-08T17:06:19.382Z,11.17
2023-03-08T17:08:48.010Z,6.27
2023-03-08T17:11:16.873Z,15.40
2023-03-08T17:13:50.925Z,5.97
2023-03-08T17:16:19.502Z,6.23
2023-03-08T17:18:48.083Z,6.50
2023-03-08T17:21:16.261Z,6.37
2023-03-08T17:23:44.375Z,8.40
2023-03-08T17:26:13.857Z,6.27
2023-03-08T17:28:42.163Z,6.73
2023-03-08T17:31:13.503Z,6.03
2023-03-08T17:33:42.318Z,6.83
2023-03-08T17:36:12.416Z,7.20
2023-03-08T17:38:40.607Z,6.70
2023-03-08T17:41:11.126Z,8.57
2023-03-08T17:43:41.135Z,14.90
2023-03-08T17:46:13.968Z,11.97
2023-03-08T17:48:42.352Z,14.03
2023-03-08T17:51:12.879Z,10.83
2023-03-08T17:53:41.323Z,7.83
2023-03-08T17:56:11.075Z,13.40
2023-03-08T17:58:39.332Z,6.40
2023-03-08T18:01:13.478Z,6.60
2023-03-08T18:03:42.165Z,13.13
2023-03-08T18:06:19.862Z,6.30
2023-03-08T18:08:48.006Z,7.07
2023-03-08T18:11:16.193Z,11.30
2023-03-08T18:13:44.515Z,11.00
2023-03-08T18:16:14.143Z,6.10
2023-03-08T18:18:42.329Z,25.73
2023-03-08T18:21:13.792Z,6.50
2023-03-08T18:23:43.407Z,8.40
2023-03-08T18:26:11.808Z,18.70
2023-03-08T18:28:40.661Z,13.10
2023-03-08T18:31:09.958Z,8.40
2023-03-08T18:33:39.684Z,6.73
2023-03-08T18:36:08.243Z,7.50
2023-03-08T18:38:37.039Z,9.20
2023-03-08T18:41:13.165Z,18.97
2023-03-08T18:43:41.671Z,7.70
2023-03-08T18:46:12.091Z,9.97
2023-03-08T18:48:42.134Z,11.60
2023-03-08T18:51:10.911Z,10.90
2023-03-08T18:53:39.065Z,8.70
2023-03-08T18:56:08.097Z,8.63
2023-03-08T18:58:36.421Z,10.50
2023-03-08T19:01:11.468Z,14.83
2023-03-08T19:03:41.550Z,8.20
2023-03-08T19:06:10.290Z,9.90
2023-03-08T19:08:38.926Z,10.30
2023-03-08T19:11:14.045Z,14.67
2023-03-08T19:13:42.789Z,12.10
2023-03-08T19:16:19.764Z,14.07
2023-03-08T19:18:50.452Z,9.17
2023-03-08T19:21:21.952Z,16.57
2023-03-08T19:23:50.216Z,9.73
2023-03-08T19:26:39.045Z,11.43
2023-03-08T19:29:09.908Z,12.07
2023-03-08T19:31:40.838Z,10.80
2023-03-08T19:34:11.576Z,10.50
2023-03-08T19:36:39.899Z,11.63
2023-03-08T19:39:10.317Z,18.93
2023-03-08T19:41:38.510Z,11.70
2023-03-08T19:44:07.686Z,14.47
2023-03-08T19:46:35.993Z,18.57
2023-03-08T19:49:05.310Z,14.70
2023-03-08T19:51:35.540Z,10.10
2023-03-08T19:54:04.088Z,11.50
2023-03-08T19:56:32.304Z,11.73
2023-03-08T19:59:00.615Z,14.70
2023-03-08T20:01:29.216Z,12.60
2023-03-08T20:03:57.771Z,14.93
2023-03-08T20:06:27.891Z,11.03
2023-03-08T20:08:57.681Z,10.77
2023-03-08T20:11:26.366Z,11.17
2023-03-08T20:13:54.769Z,14.03
2023-03-08T20:16:24.252Z,13.43
2023-03-08T20:18:52.718Z,17.90
2023-03-08T20:21:21.461Z,11.60
2023-03-08T20:23:55.146Z,10.10
2023-03-08T20:26:25.314Z,8.40
2023-03-08T20:28:53.485Z,15.97
2023-03-08T20:31:21.664Z,17.03
2023-03-08T20:33:49.875Z,13.00
2023-03-08T20:36:18.188Z,9.63
2023-03-08T20:38:46.661Z,9.97
2023-03-08T20:41:17.090Z,13.50
2023-03-08T20:43:48.247Z,19.53
2023-03-08T20:46:19.153Z,11.80
2023-03-08T20:48:47.881Z,14.60
2023-03-08T20:51:18.252Z,16.67
2023-03-08T20:53:49.048Z,14.40
2023-03-08T20:56:19.361Z,15.07
2023-03-08T20:58:49.517Z,11.57
2023-03-08T21:01:19.589Z,11.70
2023-03-08T21:03:48.831Z,11.73
2023-03-08T21:06:19.927Z,11.20
2023-03-08T21:08:49.417Z,11.90
2023-03-08T21:11:18.655Z,14.20
2023-03-08T21:13:50.452Z,12.10
2023-03-08T21:16:20.836Z,18.60
2023-03-08T21:18:50.821Z,11.60
2023-03-08T21:21:20.694Z,11.47
2023-03-08T21:23:50.277Z,22.40
2023-03-08T21:26:18.412Z,11.40
2023-03-08T21:28:46.484Z,12.30
2023-03-08T21:31:16.096Z,13.40
2023-03-08T21:33:44.273Z,12.83
2023-03-08T21:36:12.476Z,14.30
2023-03-08T21:38:40.714Z,10.37
2023-03-08T21:41:17.610Z,16.30
2023-03-08T21:43:45.730Z,11.40
2023-03-08T21:46:16.498Z,18.60
2023-03-08T21:48:46.034Z,13.23
2023-03-08T21:51:14.618Z,20.40
2023-03-08T21:53:43.697Z,19.90
2023-03-08T21:56:14.260Z,6.97
2023-03-08T21:58:42.675Z,12.87
2023-03-08T22:01:21.591Z,8.70
2023-03-08T22:03:50.234Z,7.00
2023-03-08T22:06:18.451Z,7.10
2023-03-08T22:08:46.618Z,7.40
2023-03-08T22:11:15.236Z,10.33
2023-03-08T22:13:44.175Z,6.00
2023-03-08T22:16:12.527Z,13.20
2023-03-08T22:18:42.204Z,15.13
2023-03-08T22:21:10.523Z,13.57
2023-03-08T22:23:38.725Z,16.40
2023-03-08T22:26:09.028Z,10.80
2023-03-08T22:28:37.357Z,9.37
2023-03-08T22:31:11.246Z,8.80
2023-03-08T22:33:41.686Z,6.80
2023-03-08T22:36:12.707Z,15.43
2023-03-08T22:38:41.770Z,15.47
2023-03-08T22:41:12.674Z,10.57
2023-03-08T22:43:40.984Z,8.70
2023-03-08T22:46:10.724Z,9.70
2023-03-08T22:48:38.896Z,11.83
2023-03-08T22:51:11.562Z,16.57
2023-03-08T22:53:40.092Z,18.77
2023-03-08T22:56:09.735Z,9.50
2023-03-08T22:58:37.856Z,12.67
2023-03-08T23:01:13.258Z,7.87
2023-03-08T23:03:41.446Z,7.47
2023-03-08T23:06:11.140Z,7.73
2023-03-08T23:08:39.702Z,7.20
2023-03-08T23:11:08.308Z,7.03
2023-03-08T23:13:36.591Z,22.30
2023-03-08T23:16:07.407Z,7.93
2023-03-08T23:18:35.984Z,13.10
2023-03-08T23:21:04.902Z,8.90
2023-03-08T23:23:34.531Z,9.93
2023-03-08T23:26:05.384Z,7.33
2023-03-08T23:28:35.656Z,10.17
2023-03-08T23:31:04.228Z,10.17
2023-03-08T23:33:32.484Z,9.30
2023-03-08T23:36:00.685Z,10.53
2023-03-08T23:38:29.110Z,7.57
2023-03-08T23:40:59.079Z,6.60
2023-03-08T23:43:27.323Z,8.30
2023-03-08T23:45:55.677Z,6.73
2023-03-08T23:48:23.859Z,5.40
2023-03-08T23:50:52.236Z,6.97
2023-03-08T23:53:20.373Z,7.80
2023-03-08T23:55:48.564Z,14.83
2023-03-08T23:58:18.105Z,10.80
